createdAt,value
2018-01-12T00:02:10.808Z,8.00
2018-01-12T00:04:38.406Z,8.00
2018-01-12T00:07:05.823Z,8.00
2018-01-12T00:09:33.254Z,8.00
2018-01-12T00:12:00.682Z,8.00
2018-01-12T00:14:28.107Z,8.10
2018-01-12T00:16:55.547Z,8.10
2018-01-12T00:19:22.968Z,8.10
2018-01-12T00:21:51.166Z,8.10
2018-01-12T00:24:18.599Z,8.10
2018-01-12T00:26:46.035Z,8.10
2018-01-12T00:29:14.222Z,8.10
2018-01-12T00:31:41.654Z,8.00
2018-01-12T00:34:09.079Z,8.00
2018-01-12T00:36:36.506Z,8.00
2018-01-12T00:39:03.935Z,8.00
2018-01-12T00:41:31.375Z,8.00
2018-01-12T00:43:58.805Z,7.90
2018-01-12T00:46:26.251Z,7.90
2018-01-12T00:48:53.670Z,7.90
2018-01-12T00:51:21.872Z,7.90
2018-01-12T00:53:49.307Z,7.90
2018-01-12T00:56:16.726Z,7.90
2018-01-12T00:58:44.158Z,7.80
2018-01-12T01:01:11.583Z,7.80
2018-01-12T01:03:39.015Z,7.80
2018-01-12T01:06:06.440Z,7.80
2018-01-12T01:08:33.875Z,7.80
2018-01-12T01:11:01.298Z,7.80
2018-01-12T01:13:28.731Z,7.80
2018-01-12T01:15:56.150Z,7.70
2018-01-12T01:18:23.587Z,7.70
2018-01-12T01:20:51.063Z,7.70
2018-01-12T01:23:18.490Z,7.70
2018-01-12T01:25:45.920Z,7.70
2018-01-12T01:28:13.363Z,7.70
2018-01-12T01:30:40.783Z,7.70
2018-01-12T01:33:08.244Z,7.70
2018-01-12T01:35:35.679Z,7.70
2018-01-12T01:38:03.111Z,7.70
2018-01-12T01:40:31.306Z,7.70
2018-01-12T01:42:58.730Z,7.60
2018-01-12T01:45:26.166Z,7.70
2018-01-12T01:47:53.588Z,7.70
2018-01-12T01:50:21.045Z,7.70
2018-01-12T01:52:48.446Z,7.70
2018-01-12T01:55:15.874Z,7.70
2018-01-12T01:57:43.308Z,7.70
2018-01-12T02:00:10.747Z,7.70
2018-01-12T02:02:38.191Z,7.60
2018-01-12T02:05:05.635Z,7.60
2018-01-12T02:07:33.059Z,7.70
2018-01-12T02:10:00.492Z,7.70
2018-01-12T02:12:27.923Z,7.70
2018-01-12T02:14:55.350Z,7.70
2018-01-12T02:17:22.783Z,7.70
2018-01-12T02:19:50.219Z,7.70
2018-01-12T02:22:17.655Z,7.70
2018-01-12T02:24:45.083Z,7.70
2018-01-12T02:27:13.274Z,7.70
2018-01-12T02:29:40.699Z,7.70
2018-01-12T02:32:08.131Z,7.70
2018-01-12T02:34:35.550Z,7.70
2018-01-12T02:37:03.103Z,7.70
2018-01-12T02:39:30.535Z,7.70
2018-01-12T02:41:57.968Z,7.70
2018-01-12T02:44:25.389Z,7.60
2018-01-12T02:46:52.832Z,7.60
2018-01-12T02:49:20.255Z,7.60
2018-01-12T02:51:47.678Z,7.60
2018-01-12T02:54:15.120Z,7.60
2018-01-12T02:56:42.547Z,7.60
2018-01-12T02:59:10.003Z,7.60
2018-01-12T03:01:37.430Z,7.60
2018-01-12T03:04:05.051Z,7.50
2018-01-12T03:06:32.503Z,7.50
2018-01-12T03:08:59.943Z,7.50
2018-01-12T03:11:27.388Z,7.50
2018-01-12T03:13:54.822Z,7.50
2018-01-12T03:16:23.019Z,7.50
2018-01-12T03:18:50.463Z,7.50
2018-01-12T03:21:17.887Z,7.50
2018-01-12T03:23:45.327Z,7.50
2018-01-12T03:26:12.755Z,7.50
2018-01-12T03:28:40.191Z,7.50
2018-01-12T03:31:07.643Z,7.50
2018-01-12T03:33:35.925Z,7.40
2018-01-12T03:36:03.364Z,7.40
2018-01-12T03:38:30.791Z,7.40
2018-01-12T03:40:58.522Z,7.40
2018-01-12T03:43:25.947Z,7.40
2018-01-12T03:45:53.387Z,7.40
2018-01-12T03:48:20.821Z,7.40
2018-01-12T03:50:48.268Z,7.40
2018-01-12T03:53:15.700Z,7.30
2018-01-12T03:55:43.148Z,7.30
2018-01-12T03:58:10.576Z,7.30
2018-01-12T04:00:38.011Z,7.30
2018-01-12T04:03:06.218Z,7.30
2018-01-12T04:05:33.654Z,7.20
2018-01-12T04:08:01.082Z,7.30
2018-01-12T04:10:28.508Z,7.30
2018-01-12T04:12:55.947Z,7.20
2018-01-12T04:15:23.370Z,7.20
2018-01-12T04:17:51.572Z,7.10
2018-01-12T04:20:18.998Z,7.10
2018-01-12T04:22:46.438Z,7.10
2018-01-12T04:25:13.866Z,7.10
2018-01-12T04:27:41.312Z,7.10
2018-01-12T04:30:08.742Z,7.00
2018-01-12T04:32:36.187Z,7.00
2018-01-12T04:35:04.375Z,7.00
2018-01-12T04:37:31.811Z,7.00
2018-01-12T04:39:59.247Z,7.00
2018-01-12T04:42:26.695Z,6.90
2018-01-12T04:44:54.127Z,6.90
2018-01-12T04:47:21.559Z,6.90
2018-01-12T04:49:48.999Z,6.90
2018-01-12T04:52:17.191Z,6.90
2018-01-12T04:54:44.624Z,6.90
2018-01-12T04:57:12.052Z,6.90
2018-01-12T04:59:39.560Z,6.90
2018-01-12T05:02:06.968Z,6.90
2018-01-12T05:04:34.408Z,6.80
2018-01-12T05:07:01.850Z,6.80
2018-01-12T05:09:29.292Z,6.80
2018-01-12T05:11:56.729Z,6.80
2018-01-12T05:14:24.167Z,6.80
2018-01-12T05:16:52.368Z,6.70
2018-01-12T05:19:19.807Z,6.70
2018-01-12T05:21:47.244Z,6.60
2018-01-12T05:24:14.690Z,6.60
2018-01-12T05:26:42.135Z,6.60
2018-01-12T05:29:09.570Z,6.60
2018-01-12T05:31:37.762Z,6.60
2018-01-12T05:34:05.192Z,6.60
2018-01-12T05:36:32.631Z,6.60
2018-01-12T05:39:00.064Z,6.60
2018-01-12T05:41:27.498Z,6.50
2018-01-12T05:43:55.019Z,6.50
2018-01-12T05:46:22.459Z,6.50
2018-01-12T05:48:49.892Z,6.50
2018-01-12T05:51:17.324Z,6.50
2018-01-12T05:53:44.747Z,6.50
2018-01-12T05:56:12.187Z,6.40
2018-01-12T05:58:39.611Z,6.40
2018-01-12T06:14:39.099Z,6.20
2018-01-12T06:17:06.543Z,6.20
2018-01-12T06:19:33.967Z,6.20
2018-01-12T06:22:01.399Z,6.10
2018-01-12T06:24:28.823Z,6.10
2018-01-12T06:26:57.091Z,6.10
2018-01-12T06:29:24.499Z,6.10
2018-01-12T06:31:51.937Z,6.10
2018-01-12T06:34:19.367Z,6.20
2018-01-12T06:36:46.795Z,6.10
2018-01-12T06:39:14.240Z,6.20
2018-01-12T06:41:41.655Z,6.20
2018-01-12T06:44:09.090Z,6.20
2018-01-12T06:46:37.287Z,6.10
2018-01-12T06:49:04.851Z,6.10
2018-01-12T06:51:32.371Z,6.10
2018-01-12T06:53:59.981Z,6.10
2018-01-12T06:56:27.399Z,6.20
2018-01-12T06:58:54.822Z,6.10
2018-01-12T07:01:22.259Z,6.20
2018-01-12T07:03:49.683Z,6.20
2018-01-12T07:06:17.114Z,6.10
2018-01-12T07:08:45.308Z,6.10
2018-01-12T07:11:12.743Z,6.10
2018-01-12T07:13:40.171Z,6.10
2018-01-12T07:16:07.606Z,6.10
2018-01-12T07:18:35.030Z,6.10
2018-01-12T07:21:14.354Z,6.10
2018-01-12T07:23:42.711Z,6.10
2018-01-12T07:26:10.162Z,6.00
2018-01-12T07:28:37.587Z,6.00
2018-01-12T07:31:05.011Z,6.00
2018-01-12T07:33:32.444Z,6.00
2018-01-12T07:35:59.950Z,6.00
2018-01-12T07:38:27.383Z,6.00
2018-01-12T07:40:54.812Z,6.00
2018-01-12T07:43:22.252Z,6.00
2018-01-12T07:45:49.668Z,6.00
2018-01-12T07:48:17.102Z,6.00
2018-01-12T07:50:44.603Z,6.00
2018-01-12T07:53:17.659Z,6.10
2018-01-12T07:55:45.079Z,6.10
2018-01-12T07:58:12.519Z,6.10
2018-01-12T08:00:45.543Z,6.10
2018-01-12T08:03:12.955Z,6.10
2018-01-12T08:05:40.383Z,6.00
2018-01-12T08:08:07.819Z,6.10
2018-01-12T08:10:35.238Z,6.00
2018-01-12T08:13:03.441Z,6.10
2018-01-12T08:15:30.863Z,6.00
2018-01-12T08:17:58.298Z,6.10
2018-01-12T08:20:25.725Z,6.10
2018-01-12T08:22:53.166Z,6.10
2018-01-12T08:25:20.590Z,6.10
2018-01-12T08:27:48.782Z,6.10
2018-01-12T08:30:16.222Z,6.10
2018-01-12T08:32:43.650Z,6.10
2018-01-12T08:35:11.087Z,6.10
2018-01-12T08:37:38.510Z,6.10
2018-01-12T08:40:05.944Z,6.10
2018-01-12T08:42:34.135Z,6.10
2018-01-12T08:45:01.587Z,6.10
2018-01-12T08:47:28.998Z,6.10
2018-01-12T08:49:56.440Z,6.10
2018-01-12T08:52:23.899Z,6.10
2018-01-12T08:54:51.342Z,6.10
2018-01-12T08:57:18.770Z,6.10
2018-01-12T08:59:46.202Z,6.10
2018-01-12T09:02:13.631Z,6.20
2018-01-12T09:04:41.068Z,6.20
2018-01-12T09:07:08.498Z,6.20
2018-01-12T09:09:35.934Z,6.20
2018-01-12T09:12:03.363Z,6.20
2018-01-12T09:14:42.584Z,6.30
2018-01-12T09:17:10.011Z,6.30
2018-01-12T09:19:48.222Z,6.30
2018-01-12T09:22:27.503Z,6.40
2018-01-12T09:24:54.951Z,6.40
2018-01-12T09:27:22.383Z,6.40
2018-01-12T09:29:49.818Z,6.40
2018-01-12T09:32:17.251Z,6.50
2018-01-12T09:35:01.248Z,6.50
2018-01-12T09:37:29.446Z,6.50
2018-01-12T09:40:09.455Z,6.60
2018-01-12T09:42:36.878Z,6.60
2018-01-12T09:45:04.490Z,6.60
2018-01-12T09:47:39.771Z,6.70
2018-01-12T09:50:07.981Z,6.80
2018-01-12T09:52:35.410Z,6.70
2018-01-12T09:55:02.843Z,6.80
2018-01-12T09:57:30.282Z,6.80
2018-01-12T09:59:58.624Z,6.80
2018-01-12T10:02:26.063Z,6.70
2018-01-12T10:04:53.487Z,6.60
2018-01-12T10:07:21.698Z,6.70
2018-01-12T10:09:49.145Z,6.70
2018-01-12T10:12:16.570Z,6.80
2018-01-12T10:14:44.010Z,6.90
2018-01-12T10:17:11.457Z,6.90
2018-01-12T10:33:08.250Z,7.10
2018-01-12T10:48:58.079Z,7.40
2018-01-12T10:51:37.228Z,7.40
2018-01-12T10:54:04.658Z,7.50
2018-01-12T10:56:32.087Z,7.50
2018-01-12T10:58:59.521Z,7.60
2018-01-12T11:01:26.948Z,7.70
2018-01-12T11:03:54.376Z,7.70
2018-01-12T11:06:21.811Z,7.80
2018-01-12T11:08:49.251Z,7.90
2018-01-12T11:11:16.682Z,8.00
2018-01-12T11:13:44.107Z,8.10
2018-01-12T11:16:11.538Z,8.20
2018-01-12T11:18:38.965Z,8.30
2018-01-12T11:21:06.551Z,8.30
2018-01-12T11:23:33.970Z,8.50
2018-01-12T11:26:01.407Z,8.60
2018-01-12T11:28:29.602Z,9.00
2018-01-12T11:30:57.027Z,8.90
2018-01-12T11:33:24.445Z,9.10
2018-01-12T11:35:52.046Z,9.20
2018-01-12T11:38:19.459Z,9.30
2018-01-12T11:40:46.882Z,9.50
2018-01-12T11:43:14.321Z,9.70
2018-01-12T11:45:41.811Z,9.90
2018-01-12T11:48:09.247Z,10.10
2018-01-12T11:50:36.670Z,10.30
2018-01-12T11:53:04.111Z,10.40
2018-01-12T11:55:31.538Z,10.60
2018-01-12T11:57:58.974Z,10.70
2018-01-12T12:00:26.411Z,10.80
2018-01-12T12:02:54.615Z,10.90
2018-01-12T12:05:22.038Z,10.90
2018-01-12T12:07:49.483Z,10.90
2018-01-12T12:10:16.906Z,10.90
2018-01-12T12:12:44.347Z,11.00
2018-01-12T12:15:11.898Z,11.10
2018-01-12T12:17:39.334Z,11.30
2018-01-12T12:20:06.763Z,11.50
2018-01-12T12:22:34.207Z,11.60
2018-01-12T12:25:01.635Z,11.60
2018-01-12T12:27:29.058Z,11.60
2018-01-12T12:29:56.499Z,11.60
2018-01-12T12:32:23.922Z,11.50
2018-01-12T12:34:51.358Z,11.50
2018-01-12T12:37:18.793Z,11.50
2018-01-12T12:39:46.231Z,11.50
2018-01-12T12:42:13.655Z,11.40
2018-01-12T12:44:41.095Z,11.40
2018-01-12T12:47:08.523Z,11.30
2018-01-12T12:49:35.967Z,11.20
2018-01-12T12:52:03.399Z,11.10
2018-01-12T12:54:30.831Z,11.00
2018-01-12T12:56:58.258Z,11.00
2018-01-12T12:59:25.699Z,10.90
2018-01-12T13:01:53.145Z,10.80
2018-01-12T13:04:21.327Z,10.70
2018-01-12T13:06:48.750Z,10.70
2018-01-12T13:09:16.174Z,10.60
2018-01-12T13:11:43.610Z,10.60
2018-01-12T13:14:11.046Z,10.40
2018-01-12T13:16:38.489Z,10.40
2018-01-12T13:19:05.914Z,10.30
2018-01-12T13:21:34.114Z,10.20
2018-01-12T13:24:01.547Z,10.20
2018-01-12T13:26:28.978Z,10.20
2018-01-12T13:28:56.418Z,10.10
2018-01-12T13:31:23.846Z,10.00
2018-01-12T13:33:51.270Z,10.00
2018-01-12T13:36:19.466Z,9.90
2018-01-12T13:38:46.899Z,9.90
2018-01-12T13:41:14.334Z,9.80
2018-01-12T13:43:41.760Z,9.70
2018-01-12T13:46:09.199Z,9.70
2018-01-12T13:48:36.628Z,9.70
2018-01-12T13:51:04.818Z,9.70
2018-01-12T13:53:32.243Z,9.60
2018-01-12T13:55:59.667Z,9.60
2018-01-12T13:58:27.103Z,9.60
2018-01-12T14:00:54.522Z,9.60
2018-01-12T14:03:22.727Z,9.50
2018-01-12T14:05:50.146Z,9.50
2018-01-12T14:08:17.578Z,9.50
2018-01-12T14:10:45.002Z,9.50
2018-01-12T14:13:12.436Z,9.50
2018-01-12T14:15:39.855Z,9.50
2018-01-12T14:18:07.295Z,9.50
2018-01-12T14:20:34.807Z,9.40
2018-01-12T14:23:02.243Z,9.30
2018-01-12T14:25:30.438Z,9.20
2018-01-12T14:27:57.875Z,9.20
2018-01-12T14:30:25.299Z,9.20
2018-01-12T14:32:52.723Z,9.10
2018-01-12T14:35:20.166Z,9.10
2018-01-12T14:37:47.583Z,9.00
2018-01-12T14:40:15.010Z,9.00
2018-01-12T14:42:42.440Z,8.90
2018-01-12T14:45:09.874Z,8.80
2018-01-12T14:47:37.304Z,8.90
2018-01-12T14:50:04.727Z,8.90
2018-01-12T14:52:32.155Z,8.90
2018-01-12T14:54:59.595Z,8.90
2018-01-12T14:57:27.014Z,8.90
2018-01-12T14:59:54.438Z,8.90
2018-01-12T15:02:21.885Z,8.90
2018-01-12T15:04:49.302Z,8.90
2018-01-12T15:07:17.495Z,8.90
2018-01-12T15:09:44.910Z,8.90
2018-01-12T15:12:13.114Z,8.90
2018-01-12T15:14:40.526Z,8.90
2018-01-12T15:17:07.963Z,8.90
2018-01-12T15:19:35.474Z,8.90
2018-01-12T15:22:02.919Z,8.80
2018-01-12T15:24:30.343Z,8.80
2018-01-12T15:26:57.762Z,8.80
2018-01-12T15:29:25.198Z,8.80
2018-01-12T15:31:52.619Z,8.80
2018-01-12T15:34:20.054Z,8.70
2018-01-12T15:36:47.475Z,8.70
2018-01-12T15:39:14.910Z,8.60
2018-01-12T15:41:42.326Z,8.60
2018-01-12T15:44:09.773Z,8.60
2018-01-12T15:46:37.191Z,8.60
2018-01-12T15:49:04.645Z,8.70
2018-01-12T15:51:32.066Z,8.60
2018-01-12T15:53:59.482Z,8.60
2018-01-12T15:56:26.919Z,8.60
2018-01-12T15:58:54.343Z,8.50
2018-01-12T16:01:21.779Z,8.60
2018-01-12T16:03:49.203Z,8.50
2018-01-12T16:06:16.663Z,8.50
2018-01-12T16:08:44.083Z,8.50
2018-01-12T16:11:12.282Z,8.50
2018-01-12T16:13:39.702Z,8.50
2018-01-12T16:16:07.130Z,8.40
2018-01-12T16:18:34.555Z,8.30
2018-01-12T16:21:01.979Z,8.20
2018-01-12T16:23:30.174Z,8.20
2018-01-12T16:25:57.653Z,8.20
2018-01-12T16:28:25.026Z,8.20
2018-01-12T16:30:52.454Z,8.20
2018-01-12T16:33:19.908Z,8.20
2018-01-12T16:35:48.074Z,8.10
2018-01-12T16:38:15.507Z,8.10
2018-01-12T16:40:42.926Z,8.20
2018-01-12T16:43:10.372Z,8.20
2018-01-12T16:45:37.798Z,8.20
2018-01-12T16:48:05.219Z,8.20
2018-01-12T16:50:32.660Z,8.30
2018-01-12T16:53:00.078Z,8.30
2018-01-12T16:55:27.514Z,8.30
2018-01-12T16:57:54.943Z,8.30
2018-01-12T17:00:22.373Z,8.30
2018-01-12T17:02:49.803Z,8.30
2018-01-12T17:05:17.243Z,8.20
2018-01-12T17:07:44.654Z,8.20
2018-01-12T17:10:12.092Z,8.20
2018-01-12T17:12:39.514Z,8.20
2018-01-12T17:15:06.980Z,8.20
2018-01-12T17:17:34.386Z,8.20
2018-01-12T17:20:01.811Z,8.10
2018-01-12T17:22:29.247Z,8.10
2018-01-12T17:24:56.814Z,8.10
2018-01-12T17:27:24.265Z,8.10
2018-01-12T17:29:51.690Z,8.10
2018-01-12T17:32:19.135Z,8.10
2018-01-12T17:34:47.322Z,8.00
2018-01-12T17:37:14.750Z,8.00
2018-01-12T17:39:42.170Z,8.00
2018-01-12T17:42:09.605Z,8.00
2018-01-12T17:44:37.031Z,8.00
2018-01-12T17:47:05.237Z,8.00
2018-01-12T17:49:32.654Z,8.00
2018-01-12T17:52:00.087Z,7.90
2018-01-12T17:54:27.513Z,7.90
2018-01-12T17:56:54.943Z,7.90
2018-01-12T17:59:22.375Z,7.90
2018-01-12T18:01:49.806Z,7.90
2018-01-12T18:04:17.243Z,7.80
2018-01-12T18:06:44.682Z,7.80
2018-01-12T18:09:12.243Z,7.70
2018-01-12T18:11:39.671Z,7.70
2018-01-12T18:14:07.871Z,7.70
2018-01-12T18:16:35.294Z,7.70
2018-01-12T18:19:02.722Z,7.60
2018-01-12T18:21:30.147Z,7.60
2018-01-12T18:23:57.583Z,7.50
2018-01-12T18:26:25.161Z,7.50
2018-01-12T18:28:52.599Z,7.50
2018-01-12T18:31:20.035Z,7.50
2018-01-12T18:33:47.470Z,7.40
2018-01-12T18:36:14.911Z,7.40
2018-01-12T18:38:42.352Z,7.40
2018-01-12T18:41:09.863Z,7.40
2018-01-12T18:43:37.275Z,7.40
2018-01-12T18:46:04.710Z,7.40
2018-01-12T18:48:32.142Z,7.40
2018-01-12T18:50:59.578Z,7.30
2018-01-12T18:53:27.770Z,7.30
2018-01-12T18:55:55.202Z,7.30
2018-01-12T18:58:22.646Z,7.30
2018-01-12T19:00:50.261Z,7.30
2018-01-12T19:03:17.683Z,7.20
2018-01-12T19:05:45.111Z,7.20
2018-01-12T19:08:12.551Z,7.20
2018-01-12T19:10:39.983Z,7.20
2018-01-12T19:13:07.418Z,7.20
2018-01-12T19:15:34.842Z,7.20
2018-01-12T19:18:02.278Z,7.10
2018-01-12T19:20:29.707Z,7.10
2018-01-12T19:22:57.147Z,7.10
2018-01-12T19:25:25.346Z,7.10
2018-01-12T19:27:52.795Z,7.00
2018-01-12T19:30:20.225Z,7.00
2018-01-12T19:32:47.650Z,7.00
2018-01-12T19:35:15.854Z,6.90
2018-01-12T19:37:43.283Z,6.90
2018-01-12T19:40:10.730Z,6.90
2018-01-12T19:42:38.163Z,6.90
2018-01-12T19:45:05.603Z,6.80
2018-01-12T19:47:33.070Z,6.80
2018-01-12T19:50:00.507Z,6.80
2018-01-12T19:52:27.993Z,6.80
2018-01-12T19:54:55.424Z,6.80
2018-01-12T19:57:22.874Z,6.80
2018-01-12T19:59:50.309Z,6.80
2018-01-12T20:02:17.767Z,6.70
2018-01-12T20:04:45.207Z,6.70
2018-01-12T20:07:13.810Z,6.60
2018-01-12T20:09:41.409Z,6.60
2018-01-12T20:12:08.863Z,6.60
2018-01-12T20:14:36.286Z,6.60
2018-01-12T20:17:03.723Z,6.60
2018-01-12T20:19:32.063Z,6.50
2018-01-12T20:21:59.498Z,6.50
2018-01-12T20:24:26.918Z,6.60
2018-01-12T20:26:54.358Z,6.60
2018-01-12T20:29:22.607Z,6.60
2018-01-12T20:31:50.214Z,6.50
2018-01-12T20:34:17.646Z,6.60
2018-01-12T20:36:45.839Z,6.60
2018-01-12T20:39:13.458Z,6.60
2018-01-12T20:41:40.895Z,6.60
2018-01-12T20:44:08.337Z,6.60
2018-01-12T20:46:35.874Z,6.70
2018-01-12T20:49:03.310Z,6.70
2018-01-12T20:51:31.506Z,6.70
2018-01-12T20:53:58.946Z,6.70
2018-01-12T20:56:26.381Z,6.70
2018-01-12T20:58:53.831Z,6.70
2018-01-12T21:01:21.254Z,6.90
2018-01-12T21:03:48.679Z,6.70
2018-01-12T21:06:16.119Z,6.70
2018-01-12T21:08:44.772Z,6.70
2018-01-12T21:11:12.154Z,6.70
2018-01-12T21:13:39.593Z,6.70
2018-01-12T21:16:07.027Z,6.70
2018-01-12T21:18:34.459Z,6.80
2018-01-12T21:21:01.890Z,6.70
2018-01-12T21:23:29.318Z,6.80
2018-01-12T21:25:57.518Z,6.70
2018-01-12T21:28:24.946Z,6.70
2018-01-12T21:30:52.554Z,6.70
2018-01-12T21:33:19.983Z,6.70
2018-01-12T21:35:48.183Z,6.60
2018-01-12T21:38:15.606Z,6.60
2018-01-12T21:40:43.042Z,6.60
2018-01-12T21:43:10.569Z,6.60
2018-01-12T21:45:38.007Z,6.60
2018-01-12T21:48:05.436Z,6.50
2018-01-12T21:50:32.886Z,6.50
2018-01-12T21:53:00.309Z,6.50
2018-01-12T21:55:27.743Z,6.50
2018-01-12T21:57:55.170Z,6.40
2018-01-12T22:00:23.371Z,6.40
2018-01-12T22:02:50.815Z,6.40
2018-01-12T22:05:18.243Z,6.40
2018-01-12T22:07:45.674Z,6.40
2018-01-12T22:10:13.098Z,6.30
2018-01-12T22:12:40.538Z,6.30
2018-01-12T22:15:07.954Z,6.30
2018-01-12T22:17:35.391Z,6.30
2018-01-12T22:20:02.820Z,6.20
2018-01-12T22:22:30.487Z,6.20
2018-01-12T22:24:57.910Z,6.20
2018-01-12T22:27:25.354Z,6.20
2018-01-12T22:29:52.858Z,6.20
2018-01-12T22:32:20.611Z,6.20
2018-01-12T22:34:48.039Z,6.20
2018-01-12T22:37:15.458Z,6.10
2018-01-12T22:39:42.904Z,6.20
2018-01-12T22:42:10.327Z,6.10
2018-01-12T22:44:37.770Z,6.10
2018-01-12T22:47:05.198Z,6.10
2018-01-12T22:49:32.626Z,6.10
2018-01-12T22:52:00.054Z,6.00
2018-01-12T22:54:27.482Z,5.90
2018-01-12T22:56:54.907Z,5.90
2018-01-12T22:59:22.478Z,5.90
2018-01-12T23:01:49.899Z,5.80
2018-01-12T23:04:17.341Z,5.80
2018-01-12T23:06:44.759Z,5.80
2018-01-12T23:09:12.195Z,5.80
2018-01-12T23:11:39.620Z,5.80
2018-01-12T23:14:07.063Z,5.80
2018-01-12T23:16:34.495Z,5.80
2018-01-12T23:19:01.922Z,5.80
2018-01-12T23:21:30.129Z,5.70
2018-01-12T23:23:57.542Z,5.70
2018-01-12T23:26:24.970Z,5.70
2018-01-12T23:28:52.390Z,5.70
2018-01-12T23:31:19.826Z,5.70
2018-01-12T23:33:47.246Z,5.70
2018-01-12T23:36:14.681Z,5.70
2018-01-12T23:38:42.106Z,5.70
2018-01-12T23:41:10.307Z,5.70
2018-01-12T23:43:37.734Z,5.70
2018-01-12T23:46:05.171Z,5.70
2018-01-12T23:48:32.600Z,5.70
2018-01-12T23:51:00.035Z,5.70
2018-01-12T23:53:27.458Z,5.70
2018-01-12T23:55:54.884Z,5.70
2018-01-12T23:58:22.327Z,5.60
